Time;durP1;ratioP1;P1;durP2;ratioP2;P2;SDS_P1;SDS_P2;PMS_P1;PMS_P2;Temp;Humidity;BMP_temperature;BMP_pressure;BME280_temperature;BME280_humidity;BME280_pressure;Samples;Min_cycle;Max_cycle;Signal;HPM_P1;HPM_P2
2022/06/21 00:02:11;;;;;;;8.65;2.10;;;;;;;12.68;100.00;98308.00;5081957;28;20030;-92
2022/06/21 00:04:37;;;;;;;7.03;1.90;;;;;;;12.70;100.00;98300.94;5084617;28;20032;-92
2022/06/21 00:07:06;;;;;;;7.95;1.80;;;;;;;12.71;100.00;98307.06;5074365;28;20433;-92
2022/06/21 00:09:32;;;;;;;7.03;1.75;;;;;;;12.81;100.00;98298.06;5070397;28;20037;-93
2022/06/21 00:11:59;;;;;;;7.80;1.60;;;;;;;12.86;100.00;98287.47;5071396;28;20032;-91
2022/06/21 00:14:24;;;;;;;6.75;1.77;;;;;;;12.96;100.00;98287.19;5073550;28;20054;-93
2022/06/21 00:16:51;;;;;;;7.50;1.70;;;;;;;12.95;100.00;98295.09;5072115;28;20028;-92
2022/06/21 00:19:23;;;;;;;13.98;2.10;;;;;;;12.81;100.00;98292.84;5067206;28;20038;-92
2022/06/21 00:21:49;;;;;;;9.23;1.80;;;;;;;11.40;100.00;98303.81;5073442;28;20477;-92
2022/06/21 00:24:18;;;;;;;8.65;2.10;;;;;;;12.83;100.00;98298.03;5073027;28;20124;-91
2022/06/21 00:26:46;;;;;;;7.93;1.75;;;;;;;12.85;100.00;98288.41;5071723;28;20032;-92
2022/06/21 00:29:13;;;;;;;9.18;1.90;;;;;;;12.73;100.00;98274.69;5071912;28;20072;-92
2022/06/21 00:31:44;;;;;;;7.47;1.85;;;;;;;12.63;100.00;98274.06;5070595;28;20339;-92
2022/06/21 00:34:20;;;;;;;6.63;1.65;;;;;;;11.91;100.00;98283.59;5070576;28;20496;-93
2022/06/21 00:36:47;;;;;;;7.13;2.08;;;;;;;12.35;100.00;98273.06;5069576;28;20043;-92
2022/06/21 00:39:15;;;;;;;7.38;1.60;;;;;;;10.89;100.00;98286.47;5067254;28;20028;-91
2022/06/21 00:41:54;;;;;;;6.28;1.70;;;;;;;11.98;100.00;98292.19;5071169;28;20036;-92
2022/06/21 00:45:02;;;;;;;7.35;1.90;;;;;;;12.64;100.00;98296.72;5065183;28;20093;-93
2022/06/21 00:47:44;;;;;;;7.88;1.90;;;;;;;12.76;100.00;98286.84;5068937;28;20028;-92
2022/06/21 00:50:23;;;;;;;5.68;1.67;;;;;;;12.57;100.00;98289.09;5087675;28;20017;-93
2022/06/21 00:53:21;;;;;;;6.30;1.65;;;;;;;12.57;100.00;98279.47;5070901;28;20508;-93
2022/06/21 00:56:16;;;;;;;6.40;1.60;;;;;;;12.79;100.00;98274.56;5072121;28;20048;-92
2022/06/21 00:58:49;;;;;;;8.27;1.85;;;;;;;12.74;100.00;98275.56;5070702;28;20119;-92
2022/06/21 01:01:32;;;;;;;6.93;1.40;;;;;;;12.64;100.00;98281.03;5069127;28;20024;-93
2022/06/21 01:04:10;;;;;;;6.43;1.63;;;;;;;12.50;100.00;98270.06;5071209;28;20032;-93
2022/06/21 01:06:43;;;;;;;5.05;1.40;;;;;;;12.59;100.00;98264.59;5077455;28;20023;-93
2022/06/21 01:09:34;;;;;;;6.25;1.50;;;;;;;12.66;100.00;98261.84;5082112;28;20048;-93
2022/06/21 01:12:13;;;;;;;6.00;1.40;;;;;;;12.75;100.00;98267.69;5051211;28;20426;-93
2022/06/21 01:14:49;;;;;;;6.32;1.40;;;;;;;12.78;100.00;98269.38;5073328;28;20033;-90
2022/06/21 01:17:15;;;;;;;6.13;1.60;;;;;;;12.61;100.00;98270.66;5072056;28;20020;-91
2022/06/21 01:20:01;;;;;;;5.93;1.30;;;;;;;13.10;100.00;98273.75;5084965;28;20029;-93
2022/06/21 01:22:46;;;;;;;5.63;1.45;;;;;;;12.80;100.00;98270.19;5076359;28;20035;-92
2022/06/21 01:25:34;;;;;;;5.53;1.63;;;;;;;12.43;100.00;98271.13;5072857;28;20047;-93
2022/06/21 01:28:04;;;;;;;5.50;1.45;;;;;;;12.69;100.00;98266.97;5070042;28;20119;-93
2022/06/21 01:30:30;;;;;;;4.20;1.20;;;;;;;12.61;100.00;98275.03;5067681;28;20017;-93
2022/06/21 01:32:59;;;;;;;6.53;1.48;;;;;;;12.41;100.00;98281.59;5068150;28;20052;-92
2022/06/21 01:35:34;;;;;;;6.07;1.67;;;;;;;12.48;100.00;98284.91;5068364;28;20024;-92
2022/06/21 01:38:07;;;;;;;8.13;1.60;;;;;;;12.65;100.00;98263.59;5069068;28;20040;-93
2022/06/21 01:40:39;;;;;;;6.18;1.33;;;;;;;12.50;100.00;98271.81;5069486;28;20036;-93
2022/06/21 01:43:12;;;;;;;7.22;1.95;;;;;;;12.34;100.00;98255.66;5068945;28;20025;-92
2022/06/21 01:45:50;;;;;;;5.80;1.50;;;;;;;12.56;100.00;98263.81;5068834;28;20032;-92
2022/06/21 01:48:23;;;;;;;6.47;1.52;;;;;;;12.42;100.00;98272.84;5069113;28;20107;-92
2022/06/21 01:50:50;;;;;;;;;;;;;;;12.57;100.00;98269.00;5065192;28;20056;-91
2022/06/21 01:53:19;;;;;;;6.43;1.70;;;;;;;12.43;100.00;98260.66;5070665;28;19978;-92
2022/06/21 01:55:55;;;;;;;7.22;1.40;;;;;;;12.29;100.00;98271.47;5070416;28;20060;-93
2022/06/21 01:58:26;;;;;;;7.70;1.80;;;;;;;12.31;100.00;98284.50;5070580;28;20040;-92
2022/06/21 02:01:01;;;;;;;8.63;1.63;;;;;;;12.25;100.00;98283.72;5077011;28;20086;-92
2022/06/21 02:03:32;;;;;;;6.93;1.40;;;;;;;12.24;100.00;98279.38;5084937;28;20036;-93
2022/06/21 02:06:01;;;;;;;7.38;1.50;;;;;;;11.92;100.00;98286.16;5090233;28;20012;-93
2022/06/21 02:08:38;;;;;;;7.30;1.58;;;;;;;11.96;100.00;98289.63;5078109;28;20127;-92
2022/06/21 02:11:10;;;;;;;6.97;1.67;;;;;;;12.42;100.00;98291.16;5073743;28;20025;-93
2022/06/21 02:14:28;;;;;;;5.25;1.30;;;;;;;12.06;100.00;98292.88;5072617;28;20090;-93
2022/06/21 02:16:39;;;;;;;7.32;1.77;;;;;;;12.03;100.00;98299.03;5074355;28;20506;-94
2022/06/21 02:19:20;;;;;;;6.50;1.60;;;;;;;11.91;100.00;98296.66;5077358;28;20020;-93
2022/06/21 02:21:45;;;;;;;6.63;1.58;;;;;;;12.10;100.00;98294.53;5089683;28;20023;-93
2022/06/21 02:24:14;;;;;;;5.45;1.40;;;;;;;12.09;100.00;98292.81;5088256;28;20032;-93
2022/06/21 02:26:40;;;;;;;7.30;2.10;;;;;;;12.22;100.00;98281.19;5079125;28;20508;-91
2022/06/21 02:29:08;;;;;;;6.40;1.70;;;;;;;12.28;100.00;98280.19;5069025;28;20062;-93
2022/06/21 02:31:35;;;;;;;8.18;1.65;;;;;;;12.49;100.00;98275.34;5070616;28;20078;-92
2022/06/21 02:34:06;;;;;;;7.20;1.92;;;;;;;12.46;100.00;98271.03;5070545;28;20086;-92
2022/06/21 02:36:46;;;;;;;10.52;1.88;;;;;;;12.65;100.00;98271.44;5070459;28;20021;-93
2022/06/21 02:39:17;;;;;;;8.73;1.60;;;;;;;12.66;100.00;98267.06;5067212;28;20300;-93
2022/06/21 02:41:49;;;;;;;8.63;1.92;;;;;;;12.27;100.00;98255.78;5069254;28;20145;-92
2022/06/21 02:44:38;;;;;;;6.97;1.75;;;;;;;12.52;100.00;98249.94;5066011;28;20017;-92
2022/06/21 02:47:10;;;;;;;8.40;2.00;;;;;;;12.43;100.00;98232.75;5064932;28;20024;-92
2022/06/21 02:49:42;;;;;;;8.13;1.98;;;;;;;12.24;100.00;98240.16;5064261;28;20039;-91
2022/06/21 02:52:47;;;;;;;7.45;1.70;;;;;;;11.83;100.00;98249.81;5067030;28;20157;-92
2022/06/21 02:55:37;;;;;;;10.48;2.13;;;;;;;11.85;100.00;98234.09;5062211;28;20079;-92
2022/06/21 02:58:23;;;;;;;8.13;1.95;;;;;;;11.91;100.00;98233.94;5064191;28;20029;-92
2022/06/21 03:00:51;;;;;;;6.30;1.70;;;;;;;11.89;100.00;98227.91;5065546;28;20037;-91
2022/06/21 03:03:22;;;;;;;9.02;2.17;;;;;;;11.76;100.00;98233.41;5067956;28;20048;-92
2022/06/21 03:05:50;;;;;;;5.13;1.60;;;;;;;12.03;100.00;98231.09;5068276;28;20506;-91
2022/06/21 03:08:17;;;;;;;6.28;1.55;;;;;;;12.32;100.00;98226.91;5064696;28;20031;-92
2022/06/21 03:10:47;;;;;;;6.63;1.50;;;;;;;12.44;100.00;98213.53;5068343;28;20032;-92
2022/06/21 03:13:16;;;;;;;5.60;1.40;;;;;;;12.46;100.00;98221.34;5063635;28;20032;-92
2022/06/21 03:15:46;;;;;;;9.70;1.88;;;;;;;12.43;100.00;98211.81;5061532;28;20029;-92
2022/06/21 03:18:22;;;;;;;6.63;1.70;;;;;;;12.30;100.00;98215.63;5067247;28;20107;-92
2022/06/21 03:20:51;;;;;;;5.85;1.40;;;;;;;12.49;100.00;98213.41;5063379;28;20041;-92
2022/06/21 03:23:19;;;;;;;5.53;1.60;;;;;;;12.38;100.00;98215.44;5066319;28;20114;-92
2022/06/21 03:26:06;;;;;;;9.35;1.80;;;;;;;12.15;100.00;98216.00;5064732;28;20307;-92
2022/06/21 03:28:39;;;;;;;7.03;1.80;;;;;;;12.11;100.00;98210.00;5081997;28;20048;-91
2022/06/21 03:31:13;;;;;;;8.57;2.20;;;;;;;11.88;100.00;98208.75;5070011;28;20032;-91
2022/06/21 03:33:42;;;;;;;8.98;1.80;;;;;;;11.69;100.00;98220.50;5066626;28;20123;-92
2022/06/21 03:36:26;;;;;;;9.15;2.20;;;;;;;10.15;100.00;98209.50;5075454;28;20047;-95
2022/06/21 03:39:05;;;;;;;6.82;1.90;;;;;;;9.31;100.00;98208.97;5078455;28;20045;-95
2022/06/21 03:41:46;;;;;;;7.88;1.98;;;;;;;9.25;100.00;98211.66;5077365;28;20024;-95
2022/06/21 03:44:15;;;;;;;7.40;2.00;;;;;;;9.21;100.00;98206.50;5074254;28;20106;-95
2022/06/21 03:47:05;;;;;;;6.38;1.80;;;;;;;9.17;100.00;98199.59;5072727;28;20350;-95
2022/06/21 03:49:38;;;;;;;6.68;1.73;;;;;;;9.15;100.00;98198.75;5069434;28;20432;-95
2022/06/21 03:52:08;;;;;;;5.82;1.77;;;;;;;9.25;100.00;98198.66;5073644;28;20036;-96
2022/06/21 03:54:54;;;;;;;6.90;1.80;;;;;;;9.39;100.00;98202.81;5071688;28;20056;-95
2022/06/21 03:57:47;;;;;;;5.00;1.48;;;;;;;12.38;100.00;98176.22;5071062;28;20035;-94
2022/06/21 04:00:14;;;;;;;7.57;1.65;;;;;;;12.61;100.00;98176.47;5065266;28;20045;-96
2022/06/21 04:06:04;;;;;;;5.68;1.20;;;;;;;12.73;100.00;98167.44;5056968;28;20095;-95
2022/06/21 04:09:01;;;;;;;5.90;1.85;;;;;;;12.98;100.00;98183.34;5075742;28;20029;-96
2022/06/21 04:11:55;;;;;;;5.40;1.10;;;;;;;10.12;100.00;98193.91;5073576;28;20473;-95
2022/06/21 04:14:33;;;;;;;6.22;1.45;;;;;;;9.85;100.00;98185.66;5074326;28;20393;-94
2022/06/21 04:17:16;;;;;;;5.90;1.40;;;;;;;12.63;100.00;98177.28;5083734;28;20692;-96
2022/06/21 04:19:49;;;;;;;5.50;1.20;;;;;;;12.61;100.00;98171.25;5072932;28;20055;-95
2022/06/21 04:22:30;;;;;;;5.03;1.35;;;;;;;12.73;100.00;98175.28;5072421;28;20032;-95
2022/06/21 04:25:20;;;;;;;4.97;1.25;;;;;;;12.86;100.00;98188.91;5088717;28;20033;-95
2022/06/21 04:28:25;;;;;;;6.88;1.50;;;;;;;12.89;100.00;98183.59;5071795;28;20069;-95
2022/06/21 04:31:38;;;;;;;6.88;1.45;;;;;;;12.87;100.00;98187.97;5070120;28;20045;-95
2022/06/21 04:34:37;;;;;;;7.43;1.70;;;;;;;13.10;100.00;98181.28;5074308;28;20035;-96
2022/06/21 04:41:26;;;;;;;;;;;;;;;;;;;;;
2022/06/21 04:44:19;;;;;;;5.75;1.23;;;;;;;13.44;100.00;98183.78;5045933;28;20055;-96
2022/06/21 04:47:47;;;;;;;7.55;1.50;;;;;;;13.34;100.00;98191.94;5036393;28;20036;-95
2022/06/21 04:50:39;;;;;;;;;;;;;;;;;;;;;
2022/06/21 04:53:29;;;;;;;8.15;1.42;;;;;;;11.59;100.00;98192.00;5048718;28;20044;-96
2022/06/21 05:00:00;;;;;;;6.43;1.10;;;;;;;10.81;100.00;98212.72;5054168;28;20093;-96
2022/06/21 05:03:05;;;;;;;7.03;1.80;;;;;;;10.90;100.00;98204.72;4960808;28;20039;-96
2022/06/21 05:05:44;;;;;;;6.18;1.20;;;;;;;10.87;100.00;98202.19;4992071;28;20498;-96
2022/06/21 05:12:07;;;;;;;8.63;1.73;;;;;;;10.80;100.00;98195.38;4907729;29;20163;-96
2022/06/21 05:14:52;;;;;;;6.35;1.40;;;;;;;11.56;100.00;98201.66;4899784;29;20047;-96
2022/06/21 05:17:35;;;;;;;7.53;1.35;;;;;;;11.14;100.00;98192.09;4913744;29;20048;-95
2022/06/21 05:20:32;;;;;;;7.07;1.30;;;;;;;11.41;100.00;98195.00;4915298;29;20103;-95
2022/06/21 05:23:50;;;;;;;11.43;2.17;;;;;;;13.90;100.00;98202.47;4903791;29;20036;-95
2022/06/21 05:26:28;;;;;;;5.55;1.27;;;;;;;14.34;100.00;98194.91;4906488;29;20108;-94
2022/06/21 05:29:19;;;;;;;5.85;1.27;;;;;;;14.63;100.00;98185.25;4899376;29;20065;-95
2022/06/21 05:31:50;;;;;;;6.60;1.25;;;;;;;14.95;100.00;98183.25;4902914;29;20080;-96
2022/06/21 05:34:55;;;;;;;3.45;0.82;;;;;;;15.10;100.00;98188.84;4918185;29;20044;-95
2022/06/21 05:37:40;;;;;;;4.38;0.95;;;;;;;15.21;100.00;98173.53;4943516;28;20057;-95
2022/06/21 05:40:25;;;;;;;3.88;0.70;;;;;;;15.43;94.51;98184.09;4990620;28;20046;-96
2022/06/21 05:43:37;;;;;;;4.78;0.90;;;;;;;15.43;92.90;98180.63;4995671;28;20033;-96
2022/06/21 05:46:11;;;;;;;4.25;0.80;;;;;;;15.84;89.71;98168.53;5006236;28;20236;-96
2022/06/21 05:48:40;;;;;;;3.22;0.80;;;;;;;16.02;83.88;98159.03;5044600;28;20029;-96
2022/06/21 05:51:42;;;;;;;4.07;0.85;;;;;;;15.81;87.25;98165.16;5051892;28;20018;-94
2022/06/21 05:54:14;;;;;;;3.00;0.80;;;;;;;15.96;88.36;98171.59;5230589;22;20057;-96
2022/06/21 05:57:04;;;;;;;3.87;0.77;;;;;;;15.86;87.72;98176.34;5017268;28;20557;-96
2022/06/21 06:00:08;;;;;;;4.00;0.98;;;;;;;15.75;90.61;98166.22;5021790;28;20506;-96
2022/06/21 06:02:52;;;;;;;3.97;0.95;;;;;;;15.48;89.53;98179.53;5018571;28;20045;-96
2022/06/21 06:05:25;;;;;;;3.38;0.80;;;;;;;15.38;87.52;98179.94;5023242;28;20037;-95
2022/06/21 06:08:14;;;;;;;3.15;0.70;;;;;;;15.58;84.44;98177.41;5016766;28;20045;-95
2022/06/21 06:10:43;;;;;;;2.85;0.85;;;;;;;15.60;84.20;98177.34;5034952;28;20034;-96
2022/06/21 06:13:17;;;;;;;3.03;0.80;;;;;;;13.49;99.29;98192.34;5022101;28;20510;-96
2022/06/21 06:15:50;;;;;;;4.63;0.90;;;;;;;13.22;100.00;98173.06;5026473;28;20474;-96
2022/06/21 06:18:27;;;;;;;4.82;0.98;;;;;;;13.36;100.00;98177.06;5024375;28;20045;-95
2022/06/21 06:24:15;;;;;;;5.30;1.00;;;;;;;13.71;100.00;98182.97;5013936;28;20072;-96
2022/06/21 06:26:43;;;;;;;5.25;1.17;;;;;;;16.59;87.67;98165.47;5027258;28;20097;-95
2022/06/21 06:29:35;;;;;;;4.15;1.08;;;;;;;16.68;82.96;98172.97;5042254;28;20115;-96
2022/06/21 06:32:13;;;;;;;4.28;0.93;;;;;;;16.65;80.79;98173.13;5027899;28;20079;-94
2022/06/21 06:34:49;;;;;;;5.70;0.93;;;;;;;16.10;90.33;98174.50;5020443;23;20503;-89
2022/06/21 06:37:30;;;;;;;4.82;0.90;;;;;;;17.07;82.90;98164.28;5002679;28;20478;-89
2022/06/21 06:39:57;;;;;;;3.00;0.70;;;;;;;17.01;80.78;98161.94;5000093;28;20396;-89
2022/06/21 06:42:27;;;;;;;3.13;0.90;;;;;;;17.32;82.23;98166.63;4999384;28;20045;-89
2022/06/21 06:45:06;;;;;;;4.07;0.82;;;;;;;17.46;74.54;98162.50;5004575;28;20078;-89
2022/06/21 06:47:41;;;;;;;3.88;0.90;;;;;;;17.38;73.45;98165.50;5001340;28;20045;-87
2022/06/21 06:50:10;;;;;;;5.43;1.02;;;;;;;17.56;72.88;98163.78;5004512;28;20844;-90
2022/06/21 06:52:43;;;;;;;5.18;1.00;;;;;;;17.60;73.56;98157.44;5004584;28;20486;-89
2022/06/21 06:55:28;;;;;;;5.70;1.15;;;;;;;17.74;75.33;98165.56;5003576;28;20085;-89
2022/06/21 06:58:17;;;;;;;5.50;1.13;;;;;;;18.01;74.87;98162.56;4999552;28;20406;-90
2022/06/21 07:00:57;;;;;;;5.43;1.00;;;;;;;18.18;74.22;98156.44;4999155;28;20111;-90
2022/06/21 07:03:27;;;;;;;6.22;1.40;;;;;;;18.08;75.21;98156.03;5008741;28;20117;-90
2022/06/21 07:06:12;;;;;;;5.93;1.27;;;;;;;18.13;77.80;98160.22;5004431;28;20026;-90
2022/06/21 07:09:01;;;;;;;6.68;1.48;;;;;;;17.70;80.55;98158.72;5003724;28;20038;-89
2022/06/21 07:11:39;;;;;;;5.63;1.30;;;;;;;18.12;76.23;98163.78;5007301;28;20034;-90
2022/06/21 07:14:11;;;;;;;4.32;0.98;;;;;;;17.94;74.19;98169.06;5007312;28;20025;-90
2022/06/21 07:16:39;;;;;;;6.88;1.00;;;;;;;17.73;66.22;98161.22;5011328;28;20121;-90
2022/06/21 07:19:05;;;;;;;4.03;1.00;;;;;;;18.11;66.30;98170.88;5007374;28;20453;-90
2022/06/21 07:21:31;;;;;;;4.13;0.93;;;;;;;17.72;65.11;98163.94;5010906;28;20757;-89
2022/06/21 07:23:59;;;;;;;3.28;0.90;;;;;;;17.98;64.61;98157.44;5007882;28;20033;-90
2022/06/21 07:26:41;;;;;;;5.25;0.90;;;;;;;17.99;64.28;98169.66;5004483;28;20018;-89
2022/06/21 07:29:16;;;;;;;3.42;0.80;;;;;;;18.03;62.57;98163.31;5024414;28;20048;-89
2022/06/21 07:31:50;;;;;;;3.65;1.00;;;;;;;18.21;63.09;98163.34;4995286;28;187203;-89
2022/06/21 07:34:38;;;;;;;3.90;0.90;;;;;;;18.42;64.39;98166.69;5002820;28;20045;-88
2022/06/21 07:37:15;;;;;;;6.40;1.23;;;;;;;18.43;66.43;98163.13;4998641;28;20032;-90
2022/06/21 07:39:57;;;;;;;5.75;1.02;;;;;;;18.77;67.90;98167.53;5001246;28;20044;-90
2022/06/21 07:42:38;;;;;;;5.60;1.30;;;;;;;18.23;70.37;98161.47;4999812;28;20042;-90
2022/06/21 07:45:12;;;;;;;7.82;1.40;;;;;;;18.57;72.16;98165.91;5007042;28;20026;-90
2022/06/21 07:47:56;;;;;;;5.40;1.35;;;;;;;18.52;76.56;98165.28;4997868;28;20133;-90
2022/06/21 07:50:28;;;;;;;6.97;1.50;;;;;;;18.72;78.56;98171.34;5003762;28;20061;-89
2022/06/21 07:53:06;;;;;;;5.35;1.27;;;;;;;18.69;80.14;98167.06;5004698;28;20029;-89
2022/06/21 07:55:38;;;;;;;5.93;1.40;;;;;;;18.68;76.20;98170.66;4997109;28;20030;-88
2022/06/21 07:58:17;;;;;;;5.88;1.20;;;;;;;19.01;75.90;98168.97;5009106;28;20022;-89
2022/06/21 08:06:43;;;;;;;6.68;1.30;;;;;;;19.13;76.04;98176.25;5012185;28;20033;-88
2022/06/21 08:09:15;;;;;;;6.88;1.27;;;;;;;19.21;75.25;98168.78;5003360;28;20025;-89
2022/06/21 08:11:43;;;;;;;5.45;1.38;;;;;;;19.32;77.11;98167.34;5001537;28;20133;-89
2022/06/21 08:14:13;;;;;;;7.40;1.27;;;;;;;17.42;83.49;98176.75;5027740;28;20090;-94
2022/06/21 08:16:50;;;;;;;7.75;1.30;;;;;;;16.55;93.53;98183.19;5025493;28;20054;-94
2022/06/21 08:19:50;;;;;;;9.23;1.35;;;;;;;16.38;95.18;98179.50;5022685;28;20034;-92
2022/06/21 08:22:44;;;;;;;6.05;1.30;;;;;;;16.57;97.82;98177.84;5014570;28;20036;-92
2022/06/21 08:25:41;;;;;;;5.53;1.42;;;;;;;18.81;89.08;98167.38;5012225;28;20620;-93
2022/06/21 08:28:53;;;;;;;6.80;1.38;;;;;;;19.64;77.96;98165.59;5032157;28;20030;-93
2022/06/21 08:31:32;;;;;;;6.97;1.58;;;;;;;19.65;78.08;98163.78;5004724;28;20109;-93
2022/06/21 08:34:08;;;;;;;8.15;1.55;;;;;;;18.90;86.13;98162.50;5025764;28;20046;-91
2022/06/21 08:36:45;;;;;;;6.72;1.38;;;;;;;17.25;91.57;98153.81;5039234;28;20651;-91
2022/06/21 08:39:22;;;;;;;6.18;1.50;;;;;;;19.31;91.22;98163.84;5028912;28;20022;-93
2022/06/21 08:42:10;;;;;;;7.97;1.35;;;;;;;19.64;84.44;98156.78;5012868;28;20113;-90
2022/06/21 08:48:09;;;;;;;8.23;1.80;;;;;;;17.04;100.00;98175.78;5018214;28;20045;-90
2022/06/21 08:50:59;;;;;;;12.43;2.00;;;;;;;17.15;100.00;98172.69;5009267;28;20022;-92
2022/06/21 08:53:25;;;;;;;7.53;1.58;;;;;;;16.96;100.00;98177.06;5009512;28;20026;-89
2022/06/21 08:55:59;;;;;;;7.07;1.67;;;;;;;16.80;100.00;98177.72;5007319;28;20031;-90
2022/06/21 08:58:46;;;;;;;8.20;2.00;;;;;;;16.91;100.00;98174.66;5010564;28;20038;-90
2022/06/21 09:01:29;;;;;;;9.35;1.80;;;;;;;17.18;100.00;98174.31;5002336;28;20026;-92
2022/06/21 09:04:20;;;;;;;7.68;1.52;;;;;;;18.00;95.83;98179.31;5018690;28;20046;-89
2022/06/21 09:06:51;;;;;;;7.75;2.35;;;;;;;16.99;100.00;98175.16;5006689;28;20045;-90
2022/06/21 09:09:49;;;;;;;9.10;1.90;;;;;;;17.06;100.00;98175.72;5022125;28;20088;-89
2022/06/21 09:12:33;;;;;;;8.07;2.10;;;;;;;17.55;100.00;98175.25;4971569;28;20117;-90
2022/06/21 09:15:36;;;;;;;6.65;1.52;;;;;;;18.38;100.00;98179.19;5013844;28;20023;-91
2022/06/21 09:18:56;;;;;;;8.98;2.40;;;;;;;17.86;100.00;98172.03;5011921;28;20045;-94
2022/06/21 09:21:35;;;;;;;10.80;2.50;;;;;;;17.09;100.00;98169.47;5035790;28;20053;-91
2022/06/21 09:24:23;;;;;;;7.47;1.95;;;;;;;17.24;100.00;98174.03;5024294;28;20077;-93
2022/06/21 09:27:04;;;;;;;8.27;1.85;;;;;;;17.09;100.00;98169.47;5039339;28;20291;-91
2022/06/21 09:30:06;;;;;;;6.97;1.58;;;;;;;19.36;100.00;98167.09;5035677;28;20044;-92
2022/06/21 09:33:05;;;;;;;10.80;2.10;;;;;;;17.79;100.00;98164.50;5006425;28;20030;-93
2022/06/21 09:36:14;;;;;;;6.70;1.83;;;;;;;17.80;100.00;98150.34;5030089;28;20068;-93
2022/06/21 09:39:13;;;;;;;10.68;2.08;;;;;;;18.18;100.00;98151.16;5010343;28;20033;-93
2022/06/21 09:42:00;;;;;;;10.75;2.10;;;;;;;18.19;100.00;98152.88;5008095;28;20046;-93
2022/06/21 09:44:48;;;;;;;10.05;2.00;;;;;;;19.29;100.00;98144.59;5026027;28;20030;-93
2022/06/21 09:47:40;;;;;;;8.07;1.92;;;;;;;21.19;92.88;98149.50;5003809;28;20032;-93
2022/06/21 09:50:40;;;;;;;8.52;1.95;;;;;;;18.31;100.00;98140.81;5006044;28;20029;-94
2022/06/21 09:53:38;;;;;;;7.47;1.80;;;;;;;20.71;96.50;98141.81;4998226;28;20069;-93
2022/06/21 09:56:19;;;;;;;6.40;1.70;;;;;;;20.92;78.68;98144.13;5024965;28;20034;-92
2022/06/21 09:59:23;;;;;;;8.27;1.85;;;;;;;18.82;92.71;98145.31;5019523;28;20043;-93
2022/06/21 10:02:05;;;;;;;10.80;1.65;;;;;;;19.10;89.38;98144.72;5021007;28;20609;-93
2022/06/21 10:04:36;;;;;;;7.95;1.80;;;;;;;18.97;88.40;98155.09;5018186;28;20029;-93
2022/06/21 10:07:06;;;;;;;7.65;1.80;;;;;;;18.96;90.09;98148.09;5005237;28;20026;-93
2022/06/21 10:10:02;;;;;;;6.20;1.85;;;;;;;19.55;92.01;98144.94;5021548;28;20044;-94
2022/06/21 10:12:51;;;;;;;9.30;1.75;;;;;;;21.39;83.87;98142.09;5005267;28;20096;-90
2022/06/21 10:15:39;;;;;;;7.78;1.85;;;;;;;21.63;67.68;98145.88;5004543;28;20034;-91
2022/06/21 10:18:24;;;;;;;6.40;1.75;;;;;;;23.44;62.58;98125.72;5004277;28;20069;-92
2022/06/21 10:21:08;;;;;;;7.00;1.73;;;;;;;25.53;57.90;98148.19;5028420;28;20042;-93
2022/06/21 10:23:46;;;;;;;5.72;1.50;;;;;;;22.23;63.68;98150.88;5016344;28;20040;-92
2022/06/21 10:26:14;;;;;;;6.93;1.67;;;;;;;22.44;66.37;98149.47;5008602;28;20022;-91
2022/06/21 10:29:17;;;;;;;8.38;1.60;;;;;;;22.27;69.80;98155.03;5005444;28;20098;-91
2022/06/21 10:32:04;;;;;;;5.78;1.55;;;;;;;21.88;73.05;98148.72;5025096;28;20050;-91
2022/06/21 10:34:35;;;;;;;6.43;1.70;;;;;;;20.18;77.64;98146.69;4999611;28;20061;-93
2022/06/21 10:37:01;;;;;;;11.07;1.92;;;;;;;21.17;88.61;98156.72;5006679;28;20022;-92
2022/06/21 10:40:00;;;;;;;6.47;1.75;;;;;;;21.67;80.24;98146.53;5011309;28;20482;-92
2022/06/21 10:43:13;;;;;;;8.57;1.80;;;;;;;22.63;78.83;98142.88;5020343;28;20022;-92
2022/06/21 10:45:51;;;;;;;5.28;1.65;;;;;;;21.70;77.58;98133.06;4995646;28;20038;-91
2022/06/21 10:48:49;;;;;;;8.93;1.98;;;;;;;20.38;80.14;98145.50;4995133;28;20487;-91
2022/06/21 10:51:56;;;;;;;6.65;1.77;;;;;;;20.83;80.95;98147.31;5000039;28;20021;-91
2022/06/21 10:54:34;;;;;;;7.65;1.80;;;;;;;21.99;76.91;98135.63;4947516;28;20026;-92
2022/06/21 10:57:18;;;;;;;8.73;1.95;;;;;;;22.13;76.78;98134.72;4947285;28;20034;-92
2022/06/21 11:03:04;;;;;;;5.82;1.70;;;;;;;22.20;80.01;98128.03;4966571;28;20090;-91
2022/06/21 11:06:07;;;;;;;7.13;1.90;;;;;;;21.99;79.11;98125.84;4950105;28;20047;-91
2022/06/21 11:08:35;;;;;;;7.57;1.80;;;;;;;20.43;80.28;98135.50;4967562;28;20027;-91
2022/06/21 11:11:29;;;;;;;8.98;2.05;;;;;;;20.36;86.70;98135.94;4966084;28;20174;-92
2022/06/21 11:14:10;;;;;;;7.28;1.70;;;;;;;23.58;72.74;98131.88;4953664;28;20038;-91
2022/06/21 11:16:52;;;;;;;9.32;1.95;;;;;;;23.83;64.97;98131.78;4942133;28;20731;-92
2022/06/21 11:19:38;;;;;;;10.17;2.00;;;;;;;21.00;79.08;98136.53;4955714;28;20042;-92
2022/06/21 11:22:30;;;;;;;9.00;1.80;;;;;;;23.68;67.19;98127.56;4964167;28;20780;-93
2022/06/21 11:25:05;;;;;;;7.75;1.60;;;;;;;23.13;62.61;98133.25;4993787;28;20041;-91
2022/06/21 11:27:42;;;;;;;8.50;1.77;;;;;;;23.28;63.34;98131.28;5002206;28;20057;-91
2022/06/21 11:30:10;;;;;;;8.70;1.88;;;;;;;22.75;70.20;98135.88;5004803;28;20497;-91
2022/06/21 11:32:55;;;;;;;8.68;1.90;;;;;;;21.63;67.02;98131.75;5020003;28;20080;-92
2022/06/21 11:35:49;;;;;;;8.90;1.95;;;;;;;21.03;78.55;98141.66;4995271;28;20049;-92
2022/06/21 11:38:41;;;;;;;10.32;2.28;;;;;;;22.08;72.38;98123.53;5013356;28;20040;-92
2022/06/21 11:42:04;;;;;;;7.90;1.80;;;;;;;23.17;68.27;98124.09;5003632;28;20035;-91
2022/06/21 11:44:13;;;;;;;10.00;2.08;;;;;;;22.66;81.85;98122.28;5002543;28;20280;-91
2022/06/21 11:47:18;;;;;;;7.45;1.70;;;;;;;21.36;79.93;98118.41;5017433;28;20057;-92
2022/06/21 11:50:01;;;;;;;6.65;1.73;;;;;;;20.98;83.24;98118.06;4981757;28;20141;-92
2022/06/21 11:53:11;;;;;;;6.45;1.90;;;;;;;21.40;79.66;98120.75;5001443;28;20674;-91
2022/06/21 11:55:56;;;;;;;8.40;2.35;;;;;;;21.55;81.65;98113.66;4986003;28;20053;-92
2022/06/21 11:58:30;;;;;;;8.48;1.80;;;;;;;22.40;75.84;98116.09;5001573;28;20475;-92
2022/06/21 12:01:07;;;;;;;9.52;1.90;;;;;;;22.21;72.84;98112.94;4999517;28;20057;-91
2022/06/21 12:04:05;;;;;;;7.82;1.98;;;;;;;22.42;74.42;98111.53;5008118;28;20034;-92
2022/06/21 12:06:36;;;;;;;7.90;2.03;;;;;;;24.01;77.96;98108.28;4988188;28;20068;-91
2022/06/21 12:09:15;;;;;;;10.75;2.22;;;;;;;22.36;70.50;98121.72;5008067;28;20030;-92
2022/06/21 12:11:53;;;;;;;6.60;1.80;;;;;;;22.35;75.69;98115.53;5000267;28;20022;-92
2022/06/21 12:14:37;;;;;;;7.25;1.90;;;;;;;22.62;73.48;98118.13;5002131;28;20152;-92
2022/06/21 12:17:30;;;;;;;8.93;1.83;;;;;;;23.62;66.38;98115.56;5004477;28;20386;-91
2022/06/21 12:20:03;;;;;;;8.85;2.15;;;;;;;23.87;61.31;98111.09;5024385;28;20034;-91
2022/06/21 12:22:28;;;;;;;7.88;1.70;;;;;;;24.63;57.71;98108.13;5022069;28;20062;-91
2022/06/21 12:25:05;;;;;;;6.90;1.92;;;;;;;25.60;58.79;98096.97;5010952;28;20601;-91
2022/06/21 12:27:30;;;;;;;7.10;2.00;;;;;;;24.97;56.20;98105.47;4997778;28;20036;-91
2022/06/21 12:30:21;;;;;;;7.72;1.65;;;;;;;25.08;64.76;98115.31;5008339;28;20029;-92
2022/06/21 12:32:49;;;;;;;11.02;1.80;;;;;;;25.59;58.88;98105.94;5016602;28;20038;-92
2022/06/21 12:35:19;;;;;;;6.65;1.85;;;;;;;25.72;54.57;98111.97;5026352;28;20041;-92
2022/06/21 12:37:52;;;;;;;7.97;1.83;;;;;;;23.97;62.83;98113.97;5031864;28;20378;-91
2022/06/21 12:40:24;;;;;;;7.55;1.92;;;;;;;23.08;65.28;98122.03;5010333;28;20165;-91
2022/06/21 12:43:20;;;;;;;8.77;2.17;;;;;;;22.18;68.62;98127.28;5012483;28;20088;-91
2022/06/21 12:45:58;;;;;;;8.60;1.88;;;;;;;24.16;58.28;98114.28;5024438;28;20038;-89
2022/06/21 12:48:45;;;;;;;7.55;2.10;;;;;;;24.78;60.47;98106.09;5025719;28;20034;-91
2022/06/21 12:51:37;;;;;;;7.05;2.05;;;;;;;21.81;71.58;98116.44;5011361;28;20026;-90
2022/06/21 12:54:15;;;;;;;8.27;2.03;;;;;;;21.54;75.44;98104.00;5011685;28;20037;-90
2022/06/21 12:56:47;;;;;;;7.13;1.80;;;;;;;24.94;61.82;98103.06;5018856;28;20026;-90
2022/06/21 12:59:41;;;;;;;10.65;2.00;;;;;;;25.77;60.33;98098.25;5007966;28;20377;-90
2022/06/21 13:02:28;;;;;;;9.75;2.08;;;;;;;23.39;81.08;98093.28;5002044;28;21002;-90
2022/06/21 13:05:28;;;;;;;7.57;2.08;;;;;;;24.34;60.60;98090.72;5017878;28;20109;-88
2022/06/21 13:08:06;;;;;;;6.05;1.60;;;;;;;23.99;62.19;98096.03;5003317;28;20041;-89